createdAt,value
2018-11-04T00:03:24.859Z,21
2018-11-04T00:08:27.353Z,18
2018-11-04T00:13:29.834Z,22
2018-11-04T00:18:32.259Z,26
2018-11-04T00:23:34.703Z,26
2018-11-04T00:28:37.149Z,26
2018-11-04T00:33:39.592Z,29
2018-11-04T00:38:42.068Z,33
2018-11-04T00:43:44.551Z,35
2018-11-04T00:48:46.976Z,29
2018-11-04T00:53:49.426Z,30
2018-11-04T00:58:51.900Z,29
2018-11-04T01:03:54.350Z,27
2018-11-04T01:08:56.864Z,29
2018-11-04T01:13:59.273Z,32
2018-11-04T01:19:01.725Z,33
2018-11-04T01:24:04.170Z,33
2018-11-04T01:29:06.659Z,32
2018-11-04T01:34:09.092Z,29
2018-11-04T01:39:11.546Z,31
2018-11-04T01:44:14.001Z,24
2018-11-04T01:49:16.468Z,24
2018-11-04T01:54:18.920Z,29
2018-11-04T01:59:21.409Z,25
2018-11-04T02:04:23.870Z,24
2018-11-04T02:09:26.304Z,32
2018-11-04T02:14:28.750Z,29
2018-11-04T02:19:31.312Z,20
2018-11-04T02:24:33.663Z,20
2018-11-04T02:29:36.116Z,18
2018-11-04T02:34:38.576Z,19
2018-11-04T02:39:41.058Z,17
2018-11-04T02:44:43.539Z,16
2018-11-04T02:49:45.970Z,19
2018-11-04T02:54:48.411Z,16
2018-11-04T02:59:50.866Z,16
2018-11-04T03:04:53.332Z,15
2018-11-04T03:09:55.740Z,16
2018-11-04T03:14:58.189Z,12
2018-11-04T03:20:00.662Z,13
2018-11-04T03:25:03.121Z,14
2018-11-04T03:30:05.591Z,12
2018-11-04T03:35:08.107Z,14
2018-11-04T03:40:10.532Z,13
2018-11-04T03:45:12.923Z,17
2018-11-04T03:50:15.405Z,13
2018-11-04T03:55:17.899Z,16
2018-11-04T04:00:20.295Z,16
2018-11-04T04:05:22.765Z,19
2018-11-04T04:10:25.223Z,13
2018-11-04T04:15:27.679Z,18
2018-11-04T04:20:30.134Z,18
2018-11-04T04:25:32.592Z,15
2018-11-04T04:30:35.041Z,17
2018-11-04T04:35:37.502Z,17
2018-11-04T04:40:39.976Z,20
2018-11-04T04:45:42.425Z,19
2018-11-04T04:50:44.875Z,16
2018-11-04T04:55:47.339Z,19
2018-11-04T05:00:49.797Z,20
2018-11-04T05:05:52.242Z,19
2018-11-04T05:10:54.807Z,17
2018-11-04T05:15:57.225Z,20
2018-11-04T05:20:59.685Z,17
2018-11-04T05:26:02.147Z,20
2018-11-04T05:31:04.555Z,19
2018-11-04T05:36:07.076Z,18
2018-11-04T05:41:09.463Z,17
2018-11-04T05:46:11.942Z,8
2018-11-04T05:51:14.372Z,10
2018-11-04T05:56:16.832Z,8
2018-11-04T06:01:19.277Z,7
2018-11-04T06:06:21.733Z,7
2018-11-04T06:11:24.200Z,7
2018-11-04T06:16:26.665Z,8
2018-11-04T06:21:29.111Z,7
2018-11-04T06:26:31.589Z,7
2018-11-04T06:31:34.074Z,8
2018-11-04T06:36:36.477Z,7
2018-11-04T06:41:38.959Z,6
2018-11-04T06:46:41.403Z,5
2018-11-04T06:51:43.849Z,5
2018-11-04T06:56:46.319Z,8
2018-11-04T07:01:48.769Z,8
2018-11-04T07:06:51.232Z,7
2018-11-04T07:11:53.727Z,7
2018-11-04T07:16:56.144Z,7
2018-11-04T07:21:58.650Z,5
2018-11-04T07:27:01.067Z,4
2018-11-04T07:32:03.636Z,4
2018-11-04T07:37:05.973Z,4
2018-11-04T07:42:08.440Z,4
2018-11-04T07:47:10.886Z,3
2018-11-04T07:52:13.361Z,4
2018-11-04T07:57:15.820Z,4
2018-11-04T08:02:18.276Z,4
2018-11-04T08:07:20.760Z,4
2018-11-04T08:12:23.250Z,3
2018-11-04T08:17:25.631Z,6
2018-11-04T08:22:28.120Z,3
2018-11-04T08:27:30.884Z,3
2018-11-04T08:32:33.010Z,4
2018-11-04T08:37:35.500Z,3
2018-11-04T08:42:37.929Z,2
2018-11-04T08:47:40.386Z,2
2018-11-04T08:52:42.907Z,3
2018-11-04T08:57:45.310Z,2
2018-11-04T09:02:47.749Z,3
2018-11-04T09:07:50.225Z,3
2018-11-04T09:12:52.667Z,2
2018-11-04T09:17:55.144Z,2
2018-11-04T09:22:57.602Z,3
2018-11-04T09:28:00.164Z,3
2018-11-04T09:33:02.509Z,3
2018-11-04T09:38:05.008Z,2
2018-11-04T09:43:07.484Z,3
2018-11-04T09:48:09.902Z,2
2018-11-04T09:53:12.376Z,3
2018-11-04T09:58:14.829Z,3
2018-11-04T10:03:17.300Z,3
2018-11-04T10:08:19.806Z,3
2018-11-04T10:13:22.237Z,4
2018-11-04T10:18:24.627Z,4
2018-11-04T10:23:27.082Z,4
2018-11-04T10:28:29.583Z,4
2018-11-04T10:33:32.000Z,3
2018-11-04T10:38:34.500Z,4
2018-11-04T10:43:36.913Z,3
2018-11-04T10:48:39.413Z,4
2018-11-04T10:53:41.832Z,5
2018-11-04T10:58:44.287Z,5
2018-11-04T11:03:46.836Z,4
2018-11-04T11:08:49.202Z,5
2018-11-04T11:13:51.660Z,4
2018-11-04T11:18:54.124Z,4
2018-11-04T11:23:56.582Z,4
2018-11-04T11:28:59.033Z,6
2018-11-04T11:34:01.487Z,5
2018-11-04T11:39:03.995Z,6
2018-11-04T11:44:06.420Z,6
2018-11-04T11:49:08.882Z,5
2018-11-04T11:54:11.325Z,6
2018-11-04T11:59:13.848Z,5
2018-11-04T12:04:16.233Z,6
2018-11-04T12:09:18.699Z,6
2018-11-04T12:14:21.165Z,6
2018-11-04T12:19:23.631Z,6
2018-11-04T12:24:26.096Z,8
2018-11-04T12:29:28.576Z,6
2018-11-04T12:34:30.994Z,7
2018-11-04T12:39:33.451Z,7
2018-11-04T12:44:35.892Z,7
2018-11-04T12:49:38.352Z,8
2018-11-04T12:54:40.836Z,7
2018-11-04T12:59:43.274Z,7
2018-11-04T13:04:45.814Z,7
2018-11-04T13:09:48.216Z,6
2018-11-04T13:14:50.637Z,6
2018-11-04T13:19:53.109Z,7
2018-11-04T13:24:55.573Z,8
2018-11-04T13:29:58.039Z,7
2018-11-04T13:35:00.471Z,6
2018-11-04T13:40:02.946Z,14
2018-11-04T13:45:05.394Z,8
2018-11-04T13:50:07.872Z,7
2018-11-04T13:55:10.308Z,8
2018-11-04T14:00:12.786Z,9
2018-11-04T14:05:15.217Z,7
2018-11-04T14:10:17.684Z,9
2018-11-04T14:15:20.148Z,10
2018-11-04T14:20:22.658Z,9
2018-11-04T14:25:25.090Z,10
2018-11-04T14:30:27.520Z,9
2018-11-04T14:35:29.990Z,7
2018-11-04T14:40:32.451Z,11
2018-11-04T14:45:34.941Z,12
2018-11-04T14:50:37.349Z,14
2018-11-04T14:55:39.797Z,12
2018-11-04T15:00:42.266Z,10
2018-11-04T15:05:44.894Z,12
2018-11-04T15:10:47.190Z,14
2018-11-04T15:15:49.633Z,11
2018-11-04T15:20:52.105Z,9
2018-11-04T15:25:54.562Z,10
2018-11-04T15:30:57.082Z,11
2018-11-04T15:35:59.486Z,12
2018-11-04T15:41:01.954Z,12
2018-11-04T15:46:04.412Z,11
2018-11-04T15:51:06.881Z,14
2018-11-04T15:56:09.305Z,12
2018-11-04T16:01:11.773Z,13
2018-11-04T16:06:14.221Z,13
2018-11-04T16:11:16.924Z,14
2018-11-04T16:16:19.220Z,14
2018-11-04T16:21:21.635Z,20
2018-11-04T16:26:24.043Z,14
2018-11-04T16:31:26.493Z,14
2018-11-04T16:36:28.949Z,20
2018-11-04T16:41:31.419Z,20
2018-11-04T16:46:33.876Z,18
2018-11-04T16:51:36.348Z,18
2018-11-04T16:56:38.786Z,17
2018-11-04T17:01:41.269Z,23
2018-11-04T17:06:43.765Z,19
2018-11-04T17:11:46.160Z,25
2018-11-04T17:16:48.665Z,23
2018-11-04T17:21:51.083Z,25
2018-11-04T17:26:53.536Z,31
2018-11-04T17:31:55.993Z,32
2018-11-04T17:36:58.447Z,28
2018-11-04T17:42:00.927Z,30
2018-11-04T17:47:03.385Z,31
2018-11-04T17:52:05.835Z,34
2018-11-04T17:57:08.281Z,30
2018-11-04T18:02:10.747Z,34
2018-11-04T18:07:13.277Z,32
2018-11-04T18:12:15.647Z,36
2018-11-04T18:17:18.106Z,32
2018-11-04T18:22:20.661Z,38
2018-11-04T18:27:23.053Z,37
2018-11-04T18:32:25.863Z,41
2018-11-04T18:37:27.936Z,41
2018-11-04T18:42:30.424Z,42
2018-11-04T18:47:32.864Z,44
2018-11-04T18:52:35.491Z,40
2018-11-04T18:57:37.866Z,40
2018-11-04T19:02:40.246Z,37
2018-11-04T19:07:42.694Z,41
2018-11-04T19:12:45.144Z,39
2018-11-04T19:17:47.650Z,37
2018-11-04T19:22:50.070Z,42
2018-11-04T19:27:52.532Z,44
2018-11-04T19:32:54.986Z,43
2018-11-04T19:37:57.444Z,45
2018-11-04T19:42:59.947Z,48
2018-11-04T19:48:02.428Z,44
2018-11-04T19:53:04.799Z,48
2018-11-04T19:58:07.265Z,43
2018-11-04T20:03:09.744Z,44
2018-11-04T20:08:12.283Z,45
2018-11-04T20:13:14.728Z,44
2018-11-04T20:18:17.216Z,44
